sensor_id;sensor_type;location;lat;lon;timestamp;P1;durP1;ratioP1;P2;durP2;ratioP2
80136;SDS011;76989;55.950;37.484;2024-03-08T00:04:02;7.07;;;3.85;;
80136;SDS011;76989;55.950;37.484;2024-03-08T00:06:29;8.70;;;4.07;;
80136;SDS011;76989;55.950;37.484;2024-03-08T00:08:55;9.25;;;4.38;;
80136;SDS011;76989;55.950;37.484;2024-03-08T00:11:21;9.05;;;3.67;;
80136;SDS011;76989;55.950;37.484;2024-03-08T00:13:47;6.82;;;3.60;;
80136;SDS011;76989;55.950;37.484;2024-03-08T00:16:13;7.47;;;3.22;;
80136;SDS011;76989;55.950;37.484;2024-03-08T00:18:40;8.60;;;3.60;;
80136;SDS011;76989;55.950;37.484;2024-03-08T00:21:06;8.65;;;3.80;;
80136;SDS011;76989;55.950;37.484;2024-03-08T00:23:34;8.32;;;3.70;;
80136;SDS011;76989;55.950;37.484;2024-03-08T00:26:02;7.40;;;3.75;;
80136;SDS011;76989;55.950;37.484;2024-03-08T00:28:30;7.68;;;3.40;;
80136;SDS011;76989;55.950;37.484;2024-03-08T00:30:57;9.63;;;4.10;;
80136;SDS011;76989;55.950;37.484;2024-03-08T00:33:23;8.35;;;3.95;;
80136;SDS011;76989;55.950;37.484;2024-03-08T00:35:49;6.75;;;3.70;;
80136;SDS011;76989;55.950;37.484;2024-03-08T00:38:15;8.90;;;3.75;;
80136;SDS011;76989;55.950;37.484;2024-03-08T00:40:43;6.57;;;3.92;;
80136;SDS011;76989;55.950;37.484;2024-03-08T00:43:11;8.00;;;3.47;;
80136;SDS011;76989;55.950;37.484;2024-03-08T00:45:42;7.88;;;3.45;;
80136;SDS011;76989;55.950;37.484;2024-03-08T00:48:10;7.70;;;3.63;;
80136;SDS011;76989;55.950;37.484;2024-03-08T00:50:36;5.80;;;3.13;;
80136;SDS011;76989;55.950;37.484;2024-03-08T00:53:02;7.88;;;3.20;;
80136;SDS011;76989;55.950;37.484;2024-03-08T00:55:30;9.98;;;4.60;;
80136;SDS011;76989;55.950;37.484;2024-03-08T00:57:57;7.30;;;3.38;;
80136;SDS011;76989;55.950;37.484;2024-03-08T01:00:23;8.68;;;4.25;;
80136;SDS011;76989;55.950;37.484;2024-03-08T01:02:56;9.63;;;3.28;;
80136;SDS011;76989;55.950;37.484;2024-03-08T01:05:23;7.90;;;4.10;;
80136;SDS011;76989;55.950;37.484;2024-03-08T01:07:50;8.30;;;3.75;;
80136;SDS011;76989;55.950;37.484;2024-03-08T01:10:17;9.13;;;3.58;;
80136;SDS011;76989;55.950;37.484;2024-03-08T01:12:43;9.02;;;4.30;;
80136;SDS011;76989;55.950;37.484;2024-03-08T01:15:12;7.28;;;3.72;;
80136;SDS011;76989;55.950;37.484;2024-03-08T01:47:14;6.43;;;3.03;;
80136;SDS011;76989;55.950;37.484;2024-03-08T01:49:43;8.95;;;3.75;;
80136;SDS011;76989;55.950;37.484;2024-03-08T01:52:11;9.60;;;3.83;;
80136;SDS011;76989;55.950;37.484;2024-03-08T01:54:38;8.82;;;3.60;;
80136;SDS011;76989;55.950;37.484;2024-03-08T01:57:06;7.03;;;3.40;;
80136;SDS011;76989;55.950;37.484;2024-03-08T02:07:03;9.77;;;4.63;;
80136;SDS011;76989;55.950;37.484;2024-03-08T02:13:07;11.30;;;4.60;;
80136;SDS011;76989;55.950;37.484;2024-03-08T02:15:55;11.52;;;4.95;;
80136;SDS011;76989;55.950;37.484;2024-03-08T02:18:31;7.93;;;4.30;;
80136;SDS011;76989;55.950;37.484;2024-03-08T02:21:04;11.90;;;5.43;;
80136;SDS011;76989;55.950;37.484;2024-03-08T02:23:31;8.40;;;3.97;;
80136;SDS011;76989;55.950;37.484;2024-03-08T02:26:03;9.43;;;4.53;;
80136;SDS011;76989;55.950;37.484;2024-03-08T02:28:32;8.50;;;4.57;;
80136;SDS011;76989;55.950;37.484;2024-03-08T02:31:04;10.63;;;5.15;;
80136;SDS011;76989;55.950;37.484;2024-03-08T02:33:43;10.68;;;4.85;;
80136;SDS011;76989;55.950;37.484;2024-03-08T02:36:13;10.38;;;4.97;;
80136;SDS011;76989;55.950;37.484;2024-03-08T02:38:40;13.45;;;5.28;;
80136;SDS011;76989;55.950;37.484;2024-03-08T02:41:15;11.10;;;4.97;;
80136;SDS011;76989;55.950;37.484;2024-03-08T02:43:48;10.15;;;4.97;;
80136;SDS011;76989;55.950;37.484;2024-03-08T02:46:15;9.38;;;4.60;;
80136;SDS011;76989;55.950;37.484;2024-03-08T02:48:41;10.68;;;4.13;;
80136;SDS011;76989;55.950;37.484;2024-03-08T02:51:08;13.02;;;5.38;;
80136;SDS011;76989;55.950;37.484;2024-03-08T02:59:24;9.30;;;4.78;;
80136;SDS011;76989;55.950;37.484;2024-03-08T03:08:06;8.75;;;3.63;;
80136;SDS011;76989;55.950;37.484;2024-03-08T03:13:55;9.55;;;4.55;;
80136;SDS011;76989;55.950;37.484;2024-03-08T03:16:21;11.05;;;4.40;;
80136;SDS011;76989;55.950;37.484;2024-03-08T03:18:54;10.52;;;4.80;;
80136;SDS011;76989;55.950;37.484;2024-03-08T03:23:53;14.70;;;4.40;;
80136;SDS011;76989;55.950;37.484;2024-03-08T03:26:19;7.35;;;4.82;;
80136;SDS011;76989;55.950;37.484;2024-03-08T03:28:47;9.32;;;4.22;;
80136;SDS011;76989;55.950;37.484;2024-03-08T03:31:13;9.27;;;4.53;;
80136;SDS011;76989;55.950;37.484;2024-03-08T03:33:40;7.35;;;3.63;;
80136;SDS011;76989;55.950;37.484;2024-03-08T03:36:06;8.73;;;4.10;;
80136;SDS011;76989;55.950;37.484;2024-03-08T03:38:35;14.63;;;5.00;;
80136;SDS011;76989;55.950;37.484;2024-03-08T03:41:01;9.35;;;4.35;;
80136;SDS011;76989;55.950;37.484;2024-03-08T03:43:38;8.32;;;4.30;;
80136;SDS011;76989;55.950;37.484;2024-03-08T03:46:07;9.27;;;4.63;;
80136;SDS011;76989;55.950;37.484;2024-03-08T03:48:36;9.35;;;4.60;;
80136;SDS011;76989;55.950;37.484;2024-03-08T03:51:02;11.15;;;5.30;;
80136;SDS011;76989;55.950;37.484;2024-03-08T03:53:28;10.98;;;4.63;;
80136;SDS011;76989;55.950;37.484;2024-03-08T03:55:54;10.80;;;5.38;;
80136;SDS011;76989;55.950;37.484;2024-03-08T03:58:26;11.85;;;5.75;;
80136;SDS011;76989;55.950;37.484;2024-03-08T04:00:53;11.35;;;5.75;;
80136;SDS011;76989;55.950;37.484;2024-03-08T04:03:19;12.38;;;5.80;;
80136;SDS011;76989;55.950;37.484;2024-03-08T04:05:48;10.52;;;6.10;;
80136;SDS011;76989;55.950;37.484;2024-03-08T04:08:14;12.07;;;5.45;;
80136;SDS011;76989;55.950;37.484;2024-03-08T04:10:41;13.77;;;5.70;;
80136;SDS011;76989;55.950;37.484;2024-03-08T04:13:30;13.20;;;5.97;;
80136;SDS011;76989;55.950;37.484;2024-03-08T04:16:06;9.57;;;5.00;;
80136;SDS011;76989;55.950;37.484;2024-03-08T04:18:35;12.85;;;5.38;;
80136;SDS011;76989;55.950;37.484;2024-03-08T04:21:04;11.90;;;6.22;;
80136;SDS011;76989;55.950;37.484;2024-03-08T04:23:35;13.35;;;7.18;;
80136;SDS011;76989;55.950;37.484;2024-03-08T04:26:02;14.10;;;6.68;;
80136;SDS011;76989;55.950;37.484;2024-03-08T04:28:30;16.40;;;7.40;;
80136;SDS011;76989;55.950;37.484;2024-03-08T04:30:59;12.00;;;6.70;;
80136;SDS011;76989;55.950;37.484;2024-03-08T04:33:32;15.07;;;7.50;;
80136;SDS011;76989;55.950;37.484;2024-03-08T04:36:01;13.55;;;7.00;;
80136;SDS011;76989;55.950;37.484;2024-03-08T04:38:30;15.05;;;7.35;;
80136;SDS011;76989;55.950;37.484;2024-03-08T04:40:57;14.93;;;7.45;;
80136;SDS011;76989;55.950;37.484;2024-03-08T04:43:23;14.77;;;7.70;;
80136;SDS011;76989;55.950;37.484;2024-03-08T04:45:52;15.52;;;8.00;;
80136;SDS011;76989;55.950;37.484;2024-03-08T04:48:20;16.65;;;7.65;;
80136;SDS011;76989;55.950;37.484;2024-03-08T04:50:46;17.23;;;7.53;;
80136;SDS011;76989;55.950;37.484;2024-03-08T04:53:13;13.30;;;6.43;;
80136;SDS011;76989;55.950;37.484;2024-03-08T04:55:40;15.73;;;7.80;;
80136;SDS011;76989;55.950;37.484;2024-03-08T04:58:06;16.65;;;8.32;;
80136;SDS011;76989;55.950;37.484;2024-03-08T05:00:34;17.08;;;7.05;;
80136;SDS011;76989;55.950;37.484;2024-03-08T05:03:04;14.00;;;7.35;;
80136;SDS011;76989;55.950;37.484;2024-03-08T05:05:32;15.38;;;7.20;;
80136;SDS011;76989;55.950;37.484;2024-03-08T05:08:00;15.57;;;8.25;;
80136;SDS011;76989;55.950;37.484;2024-03-08T05:10:29;12.55;;;6.55;;
80136;SDS011;76989;55.950;37.484;2024-03-08T05:12:59;13.68;;;6.65;;
80136;SDS011;76989;55.950;37.484;2024-03-08T05:15:25;13.95;;;7.72;;
80136;SDS011;76989;55.950;37.484;2024-03-08T05:17:52;12.82;;;6.15;;
80136;SDS011;76989;55.950;37.484;2024-03-08T05:20:18;14.75;;;8.05;;
80136;SDS011;76989;55.950;37.484;2024-03-08T05:22:45;11.77;;;6.22;;
80136;SDS011;76989;55.950;37.484;2024-03-08T05:25:12;13.35;;;6.15;;
80136;SDS011;76989;55.950;37.484;2024-03-08T05:27:40;11.85;;;5.60;;
80136;SDS011;76989;55.950;37.484;2024-03-08T05:30:06;12.73;;;6.07;;
80136;SDS011;76989;55.950;37.484;2024-03-08T05:32:35;13.68;;;6.72;;
80136;SDS011;76989;55.950;37.484;2024-03-08T05:35:02;13.85;;;6.35;;
80136;SDS011;76989;55.950;37.484;2024-03-08T05:37:32;14.10;;;6.63;;
80136;SDS011;76989;55.950;37.484;2024-03-08T05:39:58;10.05;;;5.53;;
80136;SDS011;76989;55.950;37.484;2024-03-08T05:42:24;11.95;;;6.57;;
80136;SDS011;76989;55.950;37.484;2024-03-08T05:44:52;11.63;;;6.65;;
80136;SDS011;76989;55.950;37.484;2024-03-08T05:47:27;11.77;;;5.00;;
80136;SDS011;76989;55.950;37.484;2024-03-08T05:49:57;11.10;;;5.28;;
80136;SDS011;76989;55.950;37.484;2024-03-08T05:52:24;13.13;;;5.68;;
80136;SDS011;76989;55.950;37.484;2024-03-08T05:54:54;11.77;;;5.57;;
80136;SDS011;76989;55.950;37.484;2024-03-08T05:57:20;10.35;;;5.72;;
80136;SDS011;76989;55.950;37.484;2024-03-08T05:59:48;13.90;;;5.82;;
80136;SDS011;76989;55.950;37.484;2024-03-08T06:02:17;15.43;;;5.70;;
80136;SDS011;76989;55.950;37.484;2024-03-08T06:04:47;12.20;;;6.05;;
80136;SDS011;76989;55.950;37.484;2024-03-08T06:07:13;12.15;;;5.57;;
80136;SDS011;76989;55.950;37.484;2024-03-08T06:09:43;13.48;;;5.70;;
80136;SDS011;76989;55.950;37.484;2024-03-08T06:12:11;14.25;;;5.57;;
80136;SDS011;76989;55.950;37.484;2024-03-08T06:14:40;12.63;;;5.55;;
80136;SDS011;76989;55.950;37.484;2024-03-08T06:17:06;14.90;;;5.78;;
80136;SDS011;76989;55.950;37.484;2024-03-08T06:19:33;11.73;;;5.93;;
80136;SDS011;76989;55.950;37.484;2024-03-08T06:22:01;11.60;;;5.90;;
80136;SDS011;76989;55.950;37.484;2024-03-08T06:24:33;12.77;;;6.95;;
80136;SDS011;76989;55.950;37.484;2024-03-08T06:27:03;12.98;;;6.65;;
80136;SDS011;76989;55.950;37.484;2024-03-08T06:29:29;14.75;;;6.80;;
80136;SDS011;76989;55.950;37.484;2024-03-08T06:31:55;12.93;;;6.50;;
80136;SDS011;76989;55.950;37.484;2024-03-08T06:34:24;10.98;;;5.82;;
80136;SDS011;76989;55.950;37.484;2024-03-08T06:39:33;12.27;;;5.85;;
80136;SDS011;76989;55.950;37.484;2024-03-08T06:45:08;12.57;;;6.93;;
80136;SDS011;76989;55.950;37.484;2024-03-08T06:47:36;13.60;;;5.75;;
80136;SDS011;76989;55.950;37.484;2024-03-08T06:50:03;12.38;;;5.18;;
80136;SDS011;76989;55.950;37.484;2024-03-08T06:52:38;10.88;;;5.65;;
80136;SDS011;76989;55.950;37.484;2024-03-08T06:55:12;13.30;;;6.85;;
80136;SDS011;76989;55.950;37.484;2024-03-08T06:57:46;13.88;;;7.95;;
80136;SDS011;76989;55.950;37.484;2024-03-08T07:00:32;11.50;;;6.22;;
80136;SDS011;76989;55.950;37.484;2024-03-08T07:03:07;12.77;;;6.25;;
80136;SDS011;76989;55.950;37.484;2024-03-08T07:05:41;11.27;;;5.47;;
80136;SDS011;76989;55.950;37.484;2024-03-08T07:08:16;15.98;;;6.30;;
80136;SDS011;76989;55.950;37.484;2024-03-08T07:14:28;10.93;;;4.90;;
80136;SDS011;76989;55.950;37.484;2024-03-08T07:16:59;12.88;;;5.88;;
80136;SDS011;76989;55.950;37.484;2024-03-08T07:19:29;9.38;;;4.60;;
80136;SDS011;76989;55.950;37.484;2024-03-08T07:21:56;10.32;;;5.05;;
80136;SDS011;76989;55.950;37.484;2024-03-08T07:24:23;10.30;;;4.53;;
80136;SDS011;76989;55.950;37.484;2024-03-08T07:27:01;10.98;;;4.55;;
80136;SDS011;76989;55.950;37.484;2024-03-08T07:29:28;9.25;;;4.57;;
80136;SDS011;76989;55.950;37.484;2024-03-08T07:31:54;9.55;;;4.78;;
80136;SDS011;76989;55.950;37.484;2024-03-08T07:34:34;10.10;;;5.00;;
80136;SDS011;76989;55.950;37.484;2024-03-08T07:37:05;11.30;;;5.03;;
80136;SDS011;76989;55.950;37.484;2024-03-08T07:39:40;9.95;;;5.78;;
80136;SDS011;76989;55.950;37.484;2024-03-08T07:42:07;11.63;;;4.95;;
80136;SDS011;76989;55.950;37.484;2024-03-08T07:44:34;9.77;;;4.65;;
80136;SDS011;76989;55.950;37.484;2024-03-08T07:47:00;11.65;;;5.07;;
80136;SDS011;76989;55.950;37.484;2024-03-08T07:49:27;11.65;;;4.90;;
80136;SDS011;76989;55.950;37.484;2024-03-08T07:51:56;11.00;;;5.25;;
80136;SDS011;76989;55.950;37.484;2024-03-08T07:54:24;12.07;;;5.45;;
80136;SDS011;76989;55.950;37.484;2024-03-08T07:56:51;9.95;;;5.20;;
80136;SDS011;76989;55.950;37.484;2024-03-08T07:59:18;11.70;;;4.60;;
80136;SDS011;76989;55.950;37.484;2024-03-08T08:01:46;9.10;;;4.85;;
80136;SDS011;76989;55.950;37.484;2024-03-08T08:04:14;10.32;;;4.95;;
80136;SDS011;76989;55.950;37.484;2024-03-08T08:06:45;9.98;;;4.75;;
80136;SDS011;76989;55.950;37.484;2024-03-08T08:09:14;8.77;;;4.60;;
80136;SDS011;76989;55.950;37.484;2024-03-08T08:11:51;10.77;;;5.18;;
80136;SDS011;76989;55.950;37.484;2024-03-08T08:14:17;9.32;;;4.50;;
80136;SDS011;76989;55.950;37.484;2024-03-08T08:16:47;8.45;;;4.60;;
80136;SDS011;76989;55.950;37.484;2024-03-08T08:19:18;11.68;;;5.75;;
80136;SDS011;76989;55.950;37.484;2024-03-08T08:21:45;15.20;;;7.10;;
80136;SDS011;76989;55.950;37.484;2024-03-08T08:24:12;10.68;;;5.55;;
80136;SDS011;76989;55.950;37.484;2024-03-08T08:26:38;10.05;;;4.80;;
80136;SDS011;76989;55.950;37.484;2024-03-08T08:29:04;11.85;;;5.60;;
80136;SDS011;76989;55.950;37.484;2024-03-08T08:31:32;9.52;;;4.70;;
80136;SDS011;76989;55.950;37.484;2024-03-08T08:34:03;10.85;;;6.55;;
80136;SDS011;76989;55.950;37.484;2024-03-08T08:36:31;9.75;;;5.22;;
80136;SDS011;76989;55.950;37.484;2024-03-08T08:39:16;10.13;;;4.93;;
80136;SDS011;76989;55.950;37.484;2024-03-08T08:41:42;10.32;;;4.85;;
80136;SDS011;76989;55.950;37.484;2024-03-08T08:44:09;9.40;;;4.80;;
80136;SDS011;76989;55.950;37.484;2024-03-08T08:46:53;11.50;;;5.32;;
80136;SDS011;76989;55.950;37.484;2024-03-08T08:49:19;10.30;;;5.15;;
80136;SDS011;76989;55.950;37.484;2024-03-08T08:51:50;11.88;;;5.43;;
80136;SDS011;76989;55.950;37.484;2024-03-08T08:54:16;8.82;;;4.90;;
80136;SDS011;76989;55.950;37.484;2024-03-08T08:56:43;11.05;;;5.28;;
80136;SDS011;76989;55.950;37.484;2024-03-08T08:59:13;10.77;;;5.13;;
80136;SDS011;76989;55.950;37.484;2024-03-08T09:01:45;11.25;;;5.72;;
80136;SDS011;76989;55.950;37.484;2024-03-08T09:04:15;11.20;;;5.18;;
80136;SDS011;76989;55.950;37.484;2024-03-08T09:06:42;10.15;;;5.88;;
80136;SDS011;76989;55.950;37.484;2024-03-08T09:09:08;12.10;;;5.38;;
80136;SDS011;76989;55.950;37.484;2024-03-08T09:11:34;10.20;;;4.70;;
80136;SDS011;76989;55.950;37.484;2024-03-08T09:14:01;8.68;;;4.88;;
80136;SDS011;76989;55.950;37.484;2024-03-08T09:16:30;8.68;;;4.75;;
80136;SDS011;76989;55.950;37.484;2024-03-08T09:18:58;9.40;;;5.13;;
80136;SDS011;76989;55.950;37.484;2024-03-08T09:21:27;10.48;;;4.63;;
80136;SDS011;76989;55.950;37.484;2024-03-08T09:24:00;9.65;;;5.13;;
80136;SDS011;76989;55.950;37.484;2024-03-08T09:26:27;10.90;;;4.75;;
80136;SDS011;76989;55.950;37.484;2024-03-08T09:28:54;11.02;;;5.70;;
80136;SDS011;76989;55.950;37.484;2024-03-08T09:31:22;10.95;;;4.90;;
80136;SDS011;76989;55.950;37.484;2024-03-08T09:33:49;10.50;;;4.88;;
80136;SDS011;76989;55.950;37.484;2024-03-08T09:36:16;8.45;;;4.78;;
80136;SDS011;76989;55.950;37.484;2024-03-08T09:38:44;11.48;;;5.43;;
80136;SDS011;76989;55.950;37.484;2024-03-08T09:41:11;10.15;;;5.45;;
80136;SDS011;76989;55.950;37.484;2024-03-08T09:43:41;9.00;;;4.47;;
80136;SDS011;76989;55.950;37.484;2024-03-08T09:46:08;9.55;;;5.13;;
80136;SDS011;76989;55.950;37.484;2024-03-08T09:48:36;9.57;;;4.93;;
80136;SDS011;76989;55.950;37.484;2024-03-08T09:51:09;9.38;;;4.47;;
80136;SDS011;76989;55.950;37.484;2024-03-08T09:53:41;9.30;;;5.45;;
80136;SDS011;76989;55.950;37.484;2024-03-08T09:59:12;14.45;;;6.45;;
80136;SDS011;76989;55.950;37.484;2024-03-08T10:08:36;12.02;;;5.45;;
80136;SDS011;76989;55.950;37.484;2024-03-08T10:11:06;10.98;;;5.88;;
80136;SDS011;76989;55.950;37.484;2024-03-08T10:13:33;10.00;;;5.75;;
80136;SDS011;76989;55.950;37.484;2024-03-08T10:16:00;13.32;;;5.65;;
80136;SDS011;76989;55.950;37.484;2024-03-08T10:18:28;9.88;;;5.20;;
80136;SDS011;76989;55.950;37.484;2024-03-08T10:21:07;12.50;;;6.18;;
80136;SDS011;76989;55.950;37.484;2024-03-08T10:23:40;10.15;;;5.72;;
80136;SDS011;76989;55.950;37.484;2024-03-08T10:26:16;10.85;;;5.80;;
80136;SDS011;76989;55.950;37.484;2024-03-08T10:32:38;11.90;;;6.25;;
80136;SDS011;76989;55.950;37.484;2024-03-08T10:35:07;10.27;;;5.88;;
80136;SDS011;76989;55.950;37.484;2024-03-08T10:37:36;10.50;;;5.55;;
80136;SDS011;76989;55.950;37.484;2024-03-08T10:40:38;10.30;;;5.47;;
80136;SDS011;76989;55.950;37.484;2024-03-08T10:50:43;9.95;;;5.40;;
80136;SDS011;76989;55.950;37.484;2024-03-08T10:53:32;9.70;;;4.93;;
80136;SDS011;76989;55.950;37.484;2024-03-08T10:56:08;10.90;;;4.97;;
80136;SDS011;76989;55.950;37.484;2024-03-08T10:58:38;10.75;;;4.50;;
80136;SDS011;76989;55.950;37.484;2024-03-08T11:01:15;10.00;;;5.18;;
80136;SDS011;76989;55.950;37.484;2024-03-08T11:03:44;9.32;;;4.40;;
80136;SDS011;76989;55.950;37.484;2024-03-08T11:09:28;8.82;;;4.78;;
80136;SDS011;76989;55.950;37.484;2024-03-08T11:12:39;11.63;;;5.68;;
80136;SDS011;76989;55.950;37.484;2024-03-08T11:19:48;12.05;;;5.78;;
80136;SDS011;76989;55.950;37.484;2024-03-08T11:25:36;10.07;;;5.85;;
80136;SDS011;76989;55.950;37.484;2024-03-08T11:28:16;10.20;;;5.20;;
80136;SDS011;76989;55.950;37.484;2024-03-08T11:33:29;12.43;;;6.00;;
80136;SDS011;76989;55.950;37.484;2024-03-08T11:36:07;12.48;;;6.13;;
80136;SDS011;76989;55.950;37.484;2024-03-08T11:38:54;11.30;;;5.63;;
80136;SDS011;76989;55.950;37.484;2024-03-08T11:41:24;12.80;;;6.68;;
80136;SDS011;76989;55.950;37.484;2024-03-08T11:44:12;12.95;;;5.70;;
80136;SDS011;76989;55.950;37.484;2024-03-08T11:46:41;11.13;;;5.55;;
80136;SDS011;76989;55.950;37.484;2024-03-08T11:49:13;13.05;;;6.28;;
80136;SDS011;76989;55.950;37.484;2024-03-08T11:51:40;10.55;;;5.75;;
80136;SDS011;76989;55.950;37.484;2024-03-08T11:54:11;12.20;;;6.53;;
80136;SDS011;76989;55.950;37.484;2024-03-08T11:56:39;19.42;;;7.18;;
80136;SDS011;76989;55.950;37.484;2024-03-08T12:04:32;37.25;;;6.65;;
80136;SDS011;76989;55.950;37.484;2024-03-08T12:07:04;12.13;;;5.90;;
80136;SDS011;76989;55.950;37.484;2024-03-08T12:09:40;10.05;;;4.80;;
80136;SDS011;76989;55.950;37.484;2024-03-08T12:13:16;13.05;;;5.65;;
80136;SDS011;76989;55.950;37.484;2024-03-08T12:15:44;11.38;;;5.93;;
80136;SDS011;76989;55.950;37.484;2024-03-08T12:18:12;17.52;;;8.68;;
80136;SDS011;76989;55.950;37.484;2024-03-08T12:21:05;12.60;;;7.28;;
80136;SDS011;76989;55.950;37.484;2024-03-08T12:23:37;14.93;;;6.30;;
80136;SDS011;76989;55.950;37.484;2024-03-08T12:26:14;13.68;;;6.10;;
80136;SDS011;76989;55.950;37.484;2024-03-08T12:28:44;10.25;;;5.43;;
80136;SDS011;76989;55.950;37.484;2024-03-08T12:31:18;12.23;;;5.78;;
80136;SDS011;76989;55.950;37.484;2024-03-08T12:33:51;9.35;;;4.78;;
80136;SDS011;76989;55.950;37.484;2024-03-08T12:36:20;9.23;;;4.32;;
80136;SDS011;76989;55.950;37.484;2024-03-08T12:38:47;9.68;;;4.80;;
80136;SDS011;76989;55.950;37.484;2024-03-08T12:41:18;10.57;;;5.47;;
80136;SDS011;76989;55.950;37.484;2024-03-08T12:43:45;10.27;;;6.05;;
80136;SDS011;76989;55.950;37.484;2024-03-08T12:46:19;13.50;;;6.50;;
80136;SDS011;76989;55.950;37.484;2024-03-08T12:48:46;12.52;;;5.95;;
80136;SDS011;76989;55.950;37.484;2024-03-08T12:51:13;10.90;;;6.07;;
80136;SDS011;76989;55.950;37.484;2024-03-08T12:53:45;13.65;;;5.88;;
80136;SDS011;76989;55.950;37.484;2024-03-08T12:56:29;12.00;;;6.28;;
80136;SDS011;76989;55.950;37.484;2024-03-08T12:59:04;9.18;;;4.30;;
80136;SDS011;76989;55.950;37.484;2024-03-08T13:01:35;11.02;;;4.63;;
80136;SDS011;76989;55.950;37.484;2024-03-08T13:04:06;9.60;;;4.75;;
80136;SDS011;76989;55.950;37.484;2024-03-08T13:06:36;8.77;;;4.72;;
80136;SDS011;76989;55.950;37.484;2024-03-08T13:09:12;11.93;;;5.55;;
80136;SDS011;76989;55.950;37.484;2024-03-08T13:11:56;9.98;;;4.82;;
80136;SDS011;76989;55.950;37.484;2024-03-08T13:14:27;14.67;;;8.20;;
80136;SDS011;76989;55.950;37.484;2024-03-08T13:17:03;8.05;;;4.82;;
80136;SDS011;76989;55.950;37.484;2024-03-08T13:25:57;9.20;;;4.90;;
80136;SDS011;76989;55.950;37.484;2024-03-08T13:29:00;8.20;;;3.75;;
80136;SDS011;76989;55.950;37.484;2024-03-08T13:31:40;10.68;;;4.60;;
80136;SDS011;76989;55.950;37.484;2024-03-08T13:34:06;11.57;;;5.07;;
80136;SDS011;76989;55.950;37.484;2024-03-08T13:36:36;10.70;;;4.45;;
80136;SDS011;76989;55.950;37.484;2024-03-08T13:39:07;12.20;;;5.60;;
80136;SDS011;76989;55.950;37.484;2024-03-08T13:41:43;10.32;;;4.78;;
80136;SDS011;76989;55.950;37.484;2024-03-08T13:44:12;9.00;;;4.43;;
80136;SDS011;76989;55.950;37.484;2024-03-08T13:46:39;10.77;;;5.78;;
80136;SDS011;76989;55.950;37.484;2024-03-08T13:49:07;11.38;;;4.88;;
80136;SDS011;76989;55.950;37.484;2024-03-08T13:51:34;12.07;;;5.65;;
80136;SDS011;76989;55.950;37.484;2024-03-08T13:54:01;9.82;;;4.50;;
80136;SDS011;76989;55.950;37.484;2024-03-08T13:56:27;9.82;;;4.22;;
80136;SDS011;76989;55.950;37.484;2024-03-08T13:58:58;9.60;;;5.05;;
80136;SDS011;76989;55.950;37.484;2024-03-08T14:01:32;8.82;;;4.95;;
80136;SDS011;76989;55.950;37.484;2024-03-08T14:04:01;10.23;;;4.72;;
80136;SDS011;76989;55.950;37.484;2024-03-08T14:06:30;9.70;;;5.00;;
80136;SDS011;76989;55.950;37.484;2024-03-08T14:08:56;10.75;;;5.35;;
80136;SDS011;76989;55.950;37.484;2024-03-08T14:11:23;11.20;;;5.68;;
80136;SDS011;76989;55.950;37.484;2024-03-08T14:13:49;10.48;;;4.85;;
80136;SDS011;76989;55.950;37.484;2024-03-08T14:16:16;11.95;;;5.18;;
80136;SDS011;76989;55.950;37.484;2024-03-08T14:18:42;10.20;;;5.03;;
80136;SDS011;76989;55.950;37.484;2024-03-08T14:21:09;10.20;;;5.40;;
80136;SDS011;76989;55.950;37.484;2024-03-08T14:23:36;9.48;;;4.63;;
80136;SDS011;76989;55.950;37.484;2024-03-08T14:26:05;9.52;;;4.32;;
80136;SDS011;76989;55.950;37.484;2024-03-08T14:28:32;11.35;;;5.65;;
80136;SDS011;76989;55.950;37.484;2024-03-08T14:30:59;9.85;;;5.30;;
80136;SDS011;76989;55.950;37.484;2024-03-08T14:33:29;9.30;;;4.78;;
80136;SDS011;76989;55.950;37.484;2024-03-08T14:35:55;13.48;;;6.32;;
80136;SDS011;76989;55.950;37.484;2024-03-08T14:38:21;8.45;;;4.40;;
80136;SDS011;76989;55.950;37.484;2024-03-08T14:40:48;12.05;;;4.93;;
80136;SDS011;76989;55.950;37.484;2024-03-08T14:43:14;9.13;;;4.72;;
80136;SDS011;76989;55.950;37.484;2024-03-08T14:45:42;9.55;;;4.70;;
80136;SDS011;76989;55.950;37.484;2024-03-08T14:48:08;11.15;;;4.90;;
80136;SDS011;76989;55.950;37.484;2024-03-08T14:50:37;11.40;;;5.28;;
80136;SDS011;76989;55.950;37.484;2024-03-08T14:53:03;11.63;;;5.55;;
80136;SDS011;76989;55.950;37.484;2024-03-08T14:55:31;11.40;;;5.68;;
80136;SDS011;76989;55.950;37.484;2024-03-08T14:58:00;10.00;;;5.00;;
80136;SDS011;76989;55.950;37.484;2024-03-08T15:00:26;14.15;;;6.63;;
80136;SDS011;76989;55.950;37.484;2024-03-08T15:02:59;11.98;;;5.50;;
80136;SDS011;76989;55.950;37.484;2024-03-08T15:05:27;11.30;;;4.97;;
80136;SDS011;76989;55.950;37.484;2024-03-08T15:07:58;10.07;;;5.25;;
80136;SDS011;76989;55.950;37.484;2024-03-08T15:10:27;11.52;;;5.43;;
80136;SDS011;76989;55.950;37.484;2024-03-08T15:12:54;9.70;;;5.40;;
80136;SDS011;76989;55.950;37.484;2024-03-08T15:15:23;11.82;;;4.90;;
80136;SDS011;76989;55.950;37.484;2024-03-08T15:17:50;9.45;;;5.18;;
80136;SDS011;76989;55.950;37.484;2024-03-08T15:20:17;10.60;;;4.95;;
80136;SDS011;76989;55.950;37.484;2024-03-08T15:22:51;11.38;;;5.13;;
80136;SDS011;76989;55.950;37.484;2024-03-08T15:25:20;12.48;;;5.50;;
80136;SDS011;76989;55.950;37.484;2024-03-08T15:27:52;10.75;;;4.70;;
80136;SDS011;76989;55.950;37.484;2024-03-08T15:32:54;11.85;;;5.53;;
80136;SDS011;76989;55.950;37.484;2024-03-08T15:35:24;14.02;;;6.22;;
80136;SDS011;76989;55.950;37.484;2024-03-08T15:37:53;16.40;;;7.80;;
80136;SDS011;76989;55.950;37.484;2024-03-08T15:40:26;12.93;;;6.72;;
80136;SDS011;76989;55.950;37.484;2024-03-08T15:43:22;10.18;;;5.72;;
80136;SDS011;76989;55.950;37.484;2024-03-08T15:45:49;11.20;;;5.43;;
80136;SDS011;76989;55.950;37.484;2024-03-08T15:48:18;12.43;;;4.93;;
80136;SDS011;76989;55.950;37.484;2024-03-08T15:50:48;12.27;;;5.25;;
80136;SDS011;76989;55.950;37.484;2024-03-08T15:53:16;12.32;;;4.95;;
80136;SDS011;76989;55.950;37.484;2024-03-08T15:55:44;14.43;;;5.95;;
80136;SDS011;76989;55.950;37.484;2024-03-08T15:58:12;13.50;;;6.90;;
80136;SDS011;76989;55.950;37.484;2024-03-08T16:00:40;12.63;;;6.30;;
80136;SDS011;76989;55.950;37.484;2024-03-08T16:03:15;13.45;;;6.43;;
80136;SDS011;76989;55.950;37.484;2024-03-08T16:05:52;13.57;;;5.72;;
80136;SDS011;76989;55.950;37.484;2024-03-08T16:08:19;11.70;;;5.53;;
80136;SDS011;76989;55.950;37.484;2024-03-08T16:11:03;14.03;;;5.93;;
80136;SDS011;76989;55.950;37.484;2024-03-08T16:13:33;10.73;;;5.38;;
80136;SDS011;76989;55.950;37.484;2024-03-08T16:16:04;12.23;;;5.47;;
80136;SDS011;76989;55.950;37.484;2024-03-08T16:18:37;13.98;;;5.97;;
80136;SDS011;76989;55.950;37.484;2024-03-08T16:21:07;13.18;;;5.40;;
80136;SDS011;76989;55.950;37.484;2024-03-08T16:23:35;13.18;;;5.90;;
80136;SDS011;76989;55.950;37.484;2024-03-08T16:26:02;11.82;;;5.28;;
80136;SDS011;76989;55.950;37.484;2024-03-08T16:28:33;13.00;;;5.90;;
80136;SDS011;76989;55.950;37.484;2024-03-08T16:31:07;12.15;;;6.43;;
80136;SDS011;76989;55.950;37.484;2024-03-08T16:33:38;11.13;;;5.80;;
80136;SDS011;76989;55.950;37.484;2024-03-08T16:36:15;12.05;;;5.82;;
80136;SDS011;76989;55.950;37.484;2024-03-08T16:38:44;11.85;;;6.57;;
80136;SDS011;76989;55.950;37.484;2024-03-08T16:41:13;11.48;;;5.85;;
80136;SDS011;76989;55.950;37.484;2024-03-08T16:55:39;13.07;;;6.18;;